createdAt,value
2022-12-08T00:02:17.312Z,6.47
2022-12-08T00:07:39.440Z,8.93
2022-12-08T00:12:42.087Z,6.57
2022-12-08T00:17:44.607Z,8.88
2022-12-08T00:22:47.467Z,9.18
2022-12-08T00:27:50.049Z,9.07
2022-12-08T00:32:52.683Z,10.88
2022-12-08T00:38:00.616Z,9.77
2022-12-08T00:43:03.733Z,8.25
2022-12-08T00:48:07.933Z,11.15
2022-12-08T00:53:11.530Z,8.13
2022-12-08T00:58:14.111Z,10.40
2022-12-08T01:03:16.677Z,13.55
2022-12-08T01:08:19.368Z,9.30
2022-12-08T01:13:21.977Z,9.55
2022-12-08T01:18:24.525Z,11.65
2022-12-08T01:23:28.796Z,14.48
2022-12-08T01:28:31.759Z,13.88
2022-12-08T01:33:34.776Z,14.23
2022-12-08T01:38:38.389Z,13.57
2022-12-08T01:44:01.563Z,13.05
2022-12-08T01:49:23.862Z,12.88
2022-12-08T01:54:35.351Z,14.18
2022-12-08T02:00:08.863Z,12.70
2022-12-08T02:05:39.370Z,13.93
2022-12-08T02:10:43.987Z,13.73
2022-12-08T02:15:49.371Z,13.23
2022-12-08T02:21:06.976Z,13.02
2022-12-08T02:26:28.817Z,12.20
2022-12-08T02:31:50.646Z,11.38
2022-12-08T02:36:59.195Z,11.02
2022-12-08T02:42:26.262Z,10.20
2022-12-08T02:47:37.012Z,9.15
2022-12-08T02:52:41.993Z,9.95
2022-12-08T02:57:50.671Z,9.48
2022-12-08T03:02:59.341Z,10.38
2022-12-08T03:08:17.338Z,11.93
2022-12-08T03:13:23.909Z,11.07
2022-12-08T03:18:29.162Z,11.40
2022-12-08T03:23:32.072Z,11.10
2022-12-08T03:28:34.954Z,13.57
2022-12-08T03:33:57.036Z,13.52
2022-12-08T03:39:00.443Z,9.43
2022-12-08T03:44:03.250Z,8.52
2022-12-08T03:49:05.991Z,6.95
2022-12-08T03:54:08.507Z,9.20
2022-12-08T03:59:11.393Z,12.00
2022-12-08T04:04:13.939Z,10.50
2022-12-08T04:09:18.787Z,7.40
2022-12-08T04:19:24.449Z,8.63
2022-12-08T04:24:27.101Z,7.75
2022-12-08T04:29:32.269Z,9.23
2022-12-08T04:34:37.284Z,6.57
2022-12-08T04:39:43.116Z,4.65
2022-12-08T04:44:45.760Z,5.75
2022-12-08T04:49:48.597Z,6.25
2022-12-08T04:54:51.269Z,5.18
2022-12-08T04:59:53.936Z,4.43
2022-12-08T05:04:57.639Z,4.43
2022-12-08T05:10:00.515Z,3.63
2022-12-08T05:15:10.042Z,3.53
2022-12-08T05:20:13.197Z,2.70
2022-12-08T05:25:15.766Z,2.60
2022-12-08T05:30:18.604Z,3.33
2022-12-08T05:35:21.212Z,3.58
2022-12-08T05:40:23.847Z,3.25
2022-12-08T05:45:26.457Z,3.20
2022-12-08T05:50:29.109Z,3.22
2022-12-08T05:55:32.830Z,3.40
2022-12-08T06:00:35.429Z,3.45
2022-12-08T06:05:38.202Z,2.85
2022-12-08T06:10:42.648Z,3.08
2022-12-08T06:15:46.827Z,2.70
2022-12-08T06:20:52.462Z,2.42
2022-12-08T06:25:55.588Z,3.10
2022-12-08T06:30:59.261Z,2.80
2022-12-08T06:36:01.794Z,2.70
2022-12-08T06:41:08.456Z,2.40
2022-12-08T06:46:14.197Z,3.13
2022-12-08T06:51:19.877Z,2.53
2022-12-08T06:56:24.601Z,2.83
2022-12-08T07:01:30.656Z,2.50
2022-12-08T07:06:33.229Z,2.42
2022-12-08T07:11:36.891Z,2.80
2022-12-08T07:16:39.728Z,3.38
2022-12-08T07:21:42.499Z,3.95
2022-12-08T07:26:45.184Z,4.70
2022-12-08T07:31:47.825Z,4.80
2022-12-08T07:36:51.702Z,3.95
2022-12-08T07:41:54.674Z,3.90
2022-12-08T07:46:57.310Z,3.35
2022-12-08T07:52:00.048Z,4.15
2022-12-08T07:57:03.732Z,3.50
2022-12-08T08:02:23.561Z,3.55
2022-12-08T08:07:28.067Z,3.85
2022-12-08T08:12:32.111Z,3.38
2022-12-08T08:17:39.044Z,3.80
2022-12-08T08:22:44.395Z,3.03
2022-12-08T08:32:50.228Z,3.40
2022-12-08T08:37:52.728Z,3.50
2022-12-08T08:42:57.261Z,4.20
2022-12-08T08:48:01.552Z,4.50
2022-12-08T08:53:04.094Z,3.47
2022-12-08T08:58:08.170Z,4.83
2022-12-08T09:03:13.910Z,6.63
2022-12-08T09:08:19.547Z,5.13
2022-12-08T09:13:23.704Z,5.47
2022-12-08T09:23:35.191Z,5.13
2022-12-08T09:28:39.656Z,5.47
2022-12-08T09:33:42.829Z,4.97
2022-12-08T09:38:46.725Z,4.57
2022-12-08T09:48:59.158Z,3.40
2022-12-08T09:54:08.281Z,3.92
2022-12-08T09:59:31.715Z,3.13
2022-12-08T10:04:36.673Z,3.50
2022-12-08T10:09:46.044Z,2.97
2022-12-08T10:15:18.755Z,3.67
2022-12-08T10:20:25.456Z,3.75
2022-12-08T10:25:37.929Z,3.63
2022-12-08T10:30:41.761Z,3.35
2022-12-08T10:35:58.547Z,3.10
2022-12-08T10:41:09.966Z,3.90
2022-12-08T10:46:18.793Z,4.10
2022-12-08T10:51:38.802Z,3.95
2022-12-08T10:56:54.689Z,4.93
2022-12-08T11:02:00.800Z,4.18
2022-12-08T11:07:05.968Z,4.40
2022-12-08T11:12:15.303Z,3.90
2022-12-08T11:17:28.688Z,3.15
2022-12-08T11:22:31.322Z,3.30
2022-12-08T11:27:39.670Z,2.92
2022-12-08T11:32:47.388Z,3.35
2022-12-08T11:37:50.424Z,3.50
2022-12-08T11:43:34.371Z,2.40
2022-12-08T11:48:44.548Z,2.15
2022-12-08T11:54:09.077Z,1.70
2022-12-08T11:59:30.201Z,2.00
2022-12-08T12:04:40.950Z,2.15
2022-12-08T12:10:13.033Z,1.52
2022-12-08T12:15:47.922Z,1.85
2022-12-08T12:21:13.524Z,1.90
2022-12-08T12:26:25.652Z,1.73
2022-12-08T12:31:35.148Z,2.28
2022-12-08T12:36:57.545Z,2.20
2022-12-08T12:42:02.375Z,3.00
2022-12-08T12:47:10.771Z,3.50
2022-12-08T12:52:16.257Z,2.85
2022-12-08T12:57:23.275Z,2.83
2022-12-08T13:02:41.122Z,3.50
2022-12-08T13:08:08.673Z,2.13
2022-12-08T13:13:18.118Z,2.85
2022-12-08T13:18:36.575Z,2.28
2022-12-08T13:23:39.294Z,2.30
2022-12-08T13:29:04.995Z,1.60
2022-12-08T13:34:19.072Z,2.05
2022-12-08T13:39:26.002Z,1.83
2022-12-08T13:45:21.500Z,1.63
2022-12-08T14:01:19.958Z,2.05
2022-12-08T14:06:30.853Z,1.73
2022-12-08T14:11:37.235Z,2.10
2022-12-08T14:16:43.879Z,2.17
2022-12-08T14:21:53.346Z,2.65
2022-12-08T14:27:02.560Z,2.75
2022-12-08T14:32:07.552Z,2.85
2022-12-08T14:37:13.631Z,3.53
2022-12-08T14:42:24.585Z,2.95
2022-12-08T14:47:34.791Z,3.50
2022-12-08T14:52:43.542Z,2.90
2022-12-08T14:57:48.753Z,2.60
2022-12-08T15:02:51.514Z,2.58
2022-12-08T15:08:02.496Z,3.00
2022-12-08T15:13:05.280Z,2.78
2022-12-08T15:18:18.173Z,2.95
2022-12-08T15:23:25.145Z,3.65
2022-12-08T15:28:30.460Z,3.97
2022-12-08T15:33:33.309Z,4.43
2022-12-08T15:38:36.174Z,5.47
2022-12-08T15:43:40.190Z,7.35
2022-12-08T15:48:42.959Z,4.85
2022-12-08T15:53:45.556Z,3.55
2022-12-08T15:58:56.940Z,3.80
2022-12-08T16:09:42.963Z,5.60
2022-12-08T16:20:16.804Z,10.07
2022-12-08T16:25:21.668Z,8.48
2022-12-08T16:30:24.844Z,6.82
2022-12-08T16:35:27.413Z,5.22
2022-12-08T16:40:30.289Z,8.85
2022-12-08T16:45:33.288Z,10.88
2022-12-08T16:50:57.037Z,9.93
2022-12-08T16:56:02.131Z,9.47
2022-12-08T17:01:06.749Z,12.57
2022-12-08T17:06:14.380Z,11.68
2022-12-08T17:11:22.356Z,10.10
2022-12-08T17:16:26.917Z,13.23
2022-12-08T17:21:29.750Z,11.98
2022-12-08T17:26:32.279Z,9.85
2022-12-08T17:31:35.097Z,12.20
2022-12-08T17:36:37.872Z,11.15
2022-12-08T17:41:40.631Z,11.77
2022-12-08T17:46:50.690Z,9.45
2022-12-08T17:51:58.430Z,12.90
2022-12-08T17:57:01.364Z,12.88
2022-12-08T18:02:04.543Z,15.70
2022-12-08T18:07:11.156Z,14.05
2022-12-08T18:12:16.947Z,12.98
2022-12-08T18:17:21.917Z,16.08
2022-12-08T18:22:24.768Z,11.75
2022-12-08T18:27:27.277Z,11.70
2022-12-08T18:32:29.863Z,14.07
2022-12-08T18:37:32.508Z,15.88
2022-12-08T18:42:36.660Z,14.27
2022-12-08T18:47:41.766Z,11.32
2022-12-08T18:52:46.065Z,11.88
2022-12-08T18:57:49.291Z,15.77
2022-12-08T19:02:52.032Z,15.20
2022-12-08T19:07:56.109Z,10.53
2022-12-08T19:12:59.224Z,14.00
2022-12-08T19:18:02.019Z,16.15
2022-12-08T19:23:04.583Z,19.33
2022-12-08T19:28:10.626Z,14.88
2022-12-08T19:33:14.299Z,11.93
2022-12-08T19:38:17.376Z,17.10
2022-12-08T19:43:39.876Z,12.65
2022-12-08T19:48:42.510Z,14.30
2022-12-08T19:53:47.907Z,14.48
2022-12-08T19:58:50.742Z,16.98
2022-12-08T20:03:53.785Z,12.13
2022-12-08T20:08:56.455Z,14.63
2022-12-08T20:14:01.834Z,12.82
2022-12-08T20:19:05.296Z,13.57
2022-12-08T20:24:08.272Z,13.90
2022-12-08T20:29:12.109Z,18.02
2022-12-08T20:34:19.955Z,12.57
2022-12-08T20:39:22.651Z,14.70
2022-12-08T20:44:25.401Z,12.50
2022-12-08T20:49:34.202Z,17.60
2022-12-08T20:54:56.022Z,15.68
2022-12-08T20:59:58.649Z,12.68
2022-12-08T21:05:01.722Z,11.10
2022-12-08T21:10:05.547Z,16.52
2022-12-08T21:15:12.460Z,17.17
2022-12-08T21:20:15.164Z,12.80
2022-12-08T21:25:18.103Z,13.98
2022-12-08T21:30:21.165Z,16.85
2022-12-08T21:35:24.583Z,11.65
2022-12-08T21:40:27.397Z,16.60
2022-12-08T21:45:30.571Z,14.63
2022-12-08T21:50:33.096Z,17.98
2022-12-08T21:55:36.171Z,12.32
2022-12-08T22:00:39.114Z,15.65
2022-12-08T22:05:42.895Z,13.75
2022-12-08T22:10:48.898Z,12.90
2022-12-08T22:15:59.444Z,18.88
2022-12-08T22:21:21.089Z,17.27
2022-12-08T22:26:24.149Z,16.08
2022-12-08T22:31:27.003Z,17.90
2022-12-08T22:36:30.026Z,18.80
2022-12-08T22:41:34.099Z,22.02
2022-12-08T22:46:36.710Z,16.13
2022-12-08T22:51:40.002Z,12.70
2022-12-08T22:56:42.618Z,18.60
2022-12-08T23:01:45.613Z,20.13
2022-12-08T23:06:49.762Z,18.92
2022-12-08T23:11:53.640Z,15.20
2022-12-08T23:16:56.440Z,16.20
2022-12-08T23:21:59.227Z,18.70
2022-12-08T23:27:02.670Z,18.58
2022-12-08T23:32:26.710Z,18.55
2022-12-08T23:37:30.015Z,12.93
2022-12-08T23:42:33.836Z,12.25
2022-12-08T23:47:37.947Z,9.50
2022-12-08T23:52:40.652Z,14.03
2022-12-08T23:57:44.608Z,10.77
